sensor_id;sensor_type;location;lat;lon;timestamp;pressure;altitude;pressure_sealevel;temperature;humidity
37020;BME280;22932;52.442;16.896;2022-08-19T00:00:12;99886.33;;;25.16;53.40
37020;BME280;22932;52.442;16.896;2022-08-19T00:02:42;99886.16;;;25.16;53.52
37020;BME280;22932;52.442;16.896;2022-08-19T00:05:13;99887.21;;;25.16;53.59
37020;BME280;22932;52.442;16.896;2022-08-19T00:07:43;99883.80;;;25.14;53.75
37020;BME280;22932;52.442;16.896;2022-08-19T00:10:12;99880.89;;;25.12;53.63
37020;BME280;22932;52.442;16.896;2022-08-19T00:12:42;99882.82;;;25.10;53.84
37020;BME280;22932;52.442;16.896;2022-08-19T00:15:14;99885.61;;;25.08;53.85
37020;BME280;22932;52.442;16.896;2022-08-19T00:17:45;99883.91;;;25.06;53.80
37020;BME280;22932;52.442;16.896;2022-08-19T00:20:19;99888.95;;;25.07;53.89
37020;BME280;22932;52.442;16.896;2022-08-19T00:22:49;99885.58;;;25.06;53.92
37020;BME280;22932;52.442;16.896;2022-08-19T03:28:44;99760.32;;;24.19;56.35
37020;BME280;22932;52.442;16.896;2022-08-19T03:31:19;99759.42;;;24.16;56.53
37020;BME280;22932;52.442;16.896;2022-08-19T03:33:51;99762.39;;;24.12;56.55
37020;BME280;22932;52.442;16.896;2022-08-19T03:36:24;99756.09;;;24.09;56.68
37020;BME280;22932;52.442;16.896;2022-08-19T03:38:57;99756.04;;;24.07;56.69
37020;BME280;22932;52.442;16.896;2022-08-19T03:41:28;99760.05;;;24.06;56.85
37020;BME280;22932;52.442;16.896;2022-08-19T03:43:58;99757.90;;;24.04;56.87
37020;BME280;22932;52.442;16.896;2022-08-19T03:46:29;99753.55;;;24.01;56.98
37020;BME280;22932;52.442;16.896;2022-08-19T03:49:02;99752.45;;;23.98;57.04
37020;BME280;22932;52.442;16.896;2022-08-19T03:51:37;99757.95;;;23.95;57.06
37020;BME280;22932;52.442;16.896;2022-08-19T04:02:29;99766.83;;;23.90;57.34
37020;BME280;22932;52.442;16.896;2022-08-19T04:04:59;99771.98;;;23.89;57.38
37020;BME280;22932;52.442;16.896;2022-08-19T04:07:28;99766.81;;;23.87;57.47
37020;BME280;22932;52.442;16.896;2022-08-19T04:09:57;99773.45;;;23.88;57.47
37020;BME280;22932;52.442;16.896;2022-08-19T04:12:27;99775.06;;;23.88;57.52
37020;BME280;22932;52.442;16.896;2022-08-19T04:14:58;99777.90;;;23.84;57.51
37020;BME280;22932;52.442;16.896;2022-08-19T04:17:28;99784.98;;;23.80;57.57
37020;BME280;22932;52.442;16.896;2022-08-19T04:19:57;99789.89;;;23.80;57.65
37020;BME280;22932;52.442;16.896;2022-08-19T04:22:26;99783.21;;;23.80;57.75
37020;BME280;22932;52.442;16.896;2022-08-19T04:24:55;99776.95;;;23.76;57.88
37020;BME280;22932;52.442;16.896;2022-08-19T04:27:25;99770.00;;;23.73;57.78
37020;BME280;22932;52.442;16.896;2022-08-19T04:29:54;99764.98;;;23.71;57.84
37020;BME280;22932;52.442;16.896;2022-08-19T04:32:23;99756.38;;;23.71;57.94
37020;BME280;22932;52.442;16.896;2022-08-19T04:34:52;99757.65;;;23.71;57.93
37020;BME280;22932;52.442;16.896;2022-08-19T04:37:24;99763.28;;;23.72;58.14
37020;BME280;22932;52.442;16.896;2022-08-19T04:39:54;99770.63;;;23.72;58.14
37020;BME280;22932;52.442;16.896;2022-08-19T04:42:32;99789.82;;;23.71;58.17
37020;BME280;22932;52.442;16.896;2022-08-19T04:45:10;99800.88;;;23.71;58.18
37020;BME280;22932;52.442;16.896;2022-08-19T04:47:44;99802.98;;;23.71;58.25
37020;BME280;22932;52.442;16.896;2022-08-19T04:50:13;99792.05;;;23.72;58.25
37020;BME280;22932;52.442;16.896;2022-08-19T04:52:43;99791.27;;;23.77;58.28
37020;BME280;22932;52.442;16.896;2022-08-19T04:55:12;99790.70;;;23.77;58.38
37020;BME280;22932;52.442;16.896;2022-08-19T04:57:42;99778.67;;;23.77;58.42
37020;BME280;22932;52.442;16.896;2022-08-19T05:00:13;99767.09;;;23.79;58.36
37020;BME280;22932;52.442;16.896;2022-08-19T05:02:42;99767.64;;;23.82;58.38
37020;BME280;22932;52.442;16.896;2022-08-19T05:05:11;99774.51;;;23.86;58.34
37020;BME280;22932;52.442;16.896;2022-08-19T05:07:41;99789.42;;;23.89;58.31
37020;BME280;22932;52.442;16.896;2022-08-19T05:10:11;99788.38;;;23.91;58.26
37020;BME280;22932;52.442;16.896;2022-08-19T05:12:40;99774.59;;;23.92;58.29
37020;BME280;22932;52.442;16.896;2022-08-19T05:15:13;99762.56;;;23.91;58.28
37020;BME280;22932;52.442;16.896;2022-08-19T05:17:42;99767.67;;;23.93;58.37
37020;BME280;22932;52.442;16.896;2022-08-19T05:20:31;99760.61;;;23.96;58.25
37020;BME280;22932;52.442;16.896;2022-08-19T05:23:20;99762.75;;;23.98;58.36
37020;BME280;22932;52.442;16.896;2022-08-19T05:25:50;99760.58;;;23.97;58.20
37020;BME280;22932;52.442;16.896;2022-08-19T05:28:18;99756.16;;;23.97;58.23
37020;BME280;22932;52.442;16.896;2022-08-19T05:30:48;99753.57;;;23.99;58.23
37020;BME280;22932;52.442;16.896;2022-08-19T05:33:19;99747.99;;;24.05;58.07
37020;BME280;22932;52.442;16.896;2022-08-19T05:35:49;99747.08;;;24.11;58.13
37020;BME280;22932;52.442;16.896;2022-08-19T05:38:18;99746.07;;;24.19;58.00
37020;BME280;22932;52.442;16.896;2022-08-19T05:40:47;99755.21;;;24.26;57.83
37020;BME280;22932;52.442;16.896;2022-08-19T05:43:17;99751.06;;;24.31;57.90
37020;BME280;22932;52.442;16.896;2022-08-19T05:45:46;99748.95;;;24.41;57.74
37020;BME280;22932;52.442;16.896;2022-08-19T05:48:18;99747.73;;;24.43;57.49
37020;BME280;22932;52.442;16.896;2022-08-19T05:50:48;99754.02;;;24.45;57.47
37020;BME280;22932;52.442;16.896;2022-08-19T05:53:19;99749.09;;;24.47;57.39
37020;BME280;22932;52.442;16.896;2022-08-19T05:55:48;99746.33;;;24.51;57.40
37020;BME280;22932;52.442;16.896;2022-08-19T05:58:17;99740.71;;;24.55;57.35
37020;BME280;22932;52.442;16.896;2022-08-19T06:00:47;99740.84;;;24.58;57.18
37020;BME280;22932;52.442;16.896;2022-08-19T06:03:16;99736.70;;;24.62;57.05
37020;BME280;22932;52.442;16.896;2022-08-19T06:05:45;99730.23;;;24.68;57.10
37020;BME280;22932;52.442;16.896;2022-08-19T06:08:14;99731.31;;;24.76;56.95
37020;BME280;22932;52.442;16.896;2022-08-19T06:10:46;99740.95;;;24.87;56.77
37020;BME280;22932;52.442;16.896;2022-08-19T06:13:15;99748.63;;;25.00;56.58
37020;BME280;22932;52.442;16.896;2022-08-19T06:15:46;99746.04;;;25.10;56.38
37020;BME280;22932;52.442;16.896;2022-08-19T06:18:16;99743.60;;;25.19;56.28
37020;BME280;22932;52.442;16.896;2022-08-19T06:20:45;99738.59;;;25.31;55.97
37020;BME280;22932;52.442;16.896;2022-08-19T06:23:15;99739.42;;;25.46;55.89
37020;BME280;22932;52.442;16.896;2022-08-19T06:25:44;99744.90;;;25.62;55.54
37020;BME280;22932;52.442;16.896;2022-08-19T06:28:13;99735.42;;;25.76;55.33
37020;BME280;22932;52.442;16.896;2022-08-19T06:30:42;99732.76;;;25.91;54.89
37020;BME280;22932;52.442;16.896;2022-08-19T06:33:12;99732.32;;;26.00;54.75
37020;BME280;22932;52.442;16.896;2022-08-19T06:35:42;99735.34;;;26.11;54.36
37020;BME280;22932;52.442;16.896;2022-08-19T06:38:10;99730.30;;;26.16;53.78
37020;BME280;22932;52.442;16.896;2022-08-19T06:40:40;99731.45;;;26.20;53.77
37020;BME280;22932;52.442;16.896;2022-08-19T06:43:09;99727.59;;;26.25;53.69
37020;BME280;22932;52.442;16.896;2022-08-19T06:45:41;99723.55;;;26.35;53.48
37020;BME280;22932;52.442;16.896;2022-08-19T06:48:10;99724.17;;;26.47;53.40
37020;BME280;22932;52.442;16.896;2022-08-19T06:50:39;99724.55;;;26.57;53.06
37020;BME280;22932;52.442;16.896;2022-08-19T06:53:08;99735.27;;;26.65;52.75
37020;BME280;22932;52.442;16.896;2022-08-19T06:58:04;99750.46;;;26.84;52.51
37020;BME280;22932;52.442;16.896;2022-08-19T07:00:34;99754.23;;;26.91;52.27
37020;BME280;22932;52.442;16.896;2022-08-19T07:03:04;99763.84;;;26.98;52.39
37020;BME280;22932;52.442;16.896;2022-08-19T07:05:33;99766.86;;;27.07;52.11
37020;BME280;22932;52.442;16.896;2022-08-19T07:08:06;99764.20;;;27.17;51.65
37020;BME280;22932;52.442;16.896;2022-08-19T07:10:35;99760.54;;;27.26;51.41
37020;BME280;22932;52.442;16.896;2022-08-19T07:13:05;99758.45;;;27.29;50.79
37020;BME280;22932;52.442;16.896;2022-08-19T07:15:42;99755.61;;;27.33;50.98
37020;BME280;22932;52.442;16.896;2022-08-19T07:18:14;99770.45;;;27.45;51.02
37020;BME280;22932;52.442;16.896;2022-08-19T07:20:43;99770.80;;;27.58;50.82
37020;BME280;22932;52.442;16.896;2022-08-19T07:23:29;99773.83;;;27.70;50.76
37020;BME280;22932;52.442;16.896;2022-08-19T07:26:08;99777.87;;;27.82;50.65
37020;BME280;22932;52.442;16.896;2022-08-19T07:28:38;99779.35;;;27.89;50.13
37020;BME280;22932;52.442;16.896;2022-08-19T07:31:09;99783.48;;;27.94;50.14
37020;BME280;22932;52.442;16.896;2022-08-19T07:33:39;99790.16;;;28.00;49.81
37020;BME280;22932;52.442;16.896;2022-08-19T07:36:28;99791.50;;;27.99;49.41
37020;BME280;22932;52.442;16.896;2022-08-19T07:39:03;99794.59;;;27.98;49.42
37020;BME280;22932;52.442;16.896;2022-08-19T07:44:01;99798.95;;;27.91;49.26
37020;BME280;22932;52.442;16.896;2022-08-19T07:46:33;99803.95;;;27.91;49.35
37020;BME280;22932;52.442;16.896;2022-08-19T07:49:02;99801.64;;;27.94;49.04
37020;BME280;22932;52.442;16.896;2022-08-19T07:51:32;99805.96;;;27.94;49.04
37020;BME280;22932;52.442;16.896;2022-08-19T07:54:02;99802.43;;;27.98;49.10
37020;BME280;22932;52.442;16.896;2022-08-19T07:59:28;99799.39;;;28.00;48.81
37020;BME280;22932;52.442;16.896;2022-08-19T08:02:07;99795.10;;;28.01;48.91
37020;BME280;22932;52.442;16.896;2022-08-19T08:04:37;99804.14;;;28.06;48.86
37020;BME280;22932;52.442;16.896;2022-08-19T08:07:13;99803.84;;;28.14;48.84
37020;BME280;22932;52.442;16.896;2022-08-19T08:10:00;99795.48;;;28.22;48.77
37020;BME280;22932;52.442;16.896;2022-08-19T08:12:33;99784.86;;;28.30;48.70
37020;BME280;22932;52.442;16.896;2022-08-19T08:15:08;99780.73;;;28.41;48.78
37020;BME280;22932;52.442;16.896;2022-08-19T08:17:39;99786.34;;;28.54;48.50
37020;BME280;22932;52.442;16.896;2022-08-19T08:20:09;99783.20;;;28.61;48.27
37020;BME280;22932;52.442;16.896;2022-08-19T08:22:44;99788.09;;;28.65;47.99
37020;BME280;22932;52.442;16.896;2022-08-19T08:25:31;99782.41;;;28.61;47.89
37020;BME280;22932;52.442;16.896;2022-08-19T08:28:01;99789.91;;;28.58;48.02
37020;BME280;22932;52.442;16.896;2022-08-19T08:30:31;99793.95;;;28.49;47.94
37020;BME280;22932;52.442;16.896;2022-08-19T08:33:04;99791.98;;;28.42;48.13
37020;BME280;22932;52.442;16.896;2022-08-19T08:35:34;99784.09;;;28.45;48.34
37020;BME280;22932;52.442;16.896;2022-08-19T08:38:03;99792.59;;;28.62;48.26
37020;BME280;22932;52.442;16.896;2022-08-19T08:40:39;99792.85;;;28.81;48.14
37020;BME280;22932;52.442;16.896;2022-08-19T08:43:19;99795.31;;;28.91;48.07
37020;BME280;22932;52.442;16.896;2022-08-19T08:45:56;99801.51;;;29.04;47.59
37020;BME280;22932;52.442;16.896;2022-08-19T08:48:34;99800.52;;;29.19;47.39
37020;BME280;22932;52.442;16.896;2022-08-19T08:51:08;99805.24;;;29.36;46.95
37020;BME280;22932;52.442;16.896;2022-08-19T08:53:39;99816.59;;;29.48;46.77
37020;BME280;22932;52.442;16.896;2022-08-19T08:56:11;99820.21;;;29.57;46.48
37020;BME280;22932;52.442;16.896;2022-08-19T08:58:51;99818.05;;;29.62;46.27
37020;BME280;22932;52.442;16.896;2022-08-19T09:01:23;99810.88;;;29.69;45.97
37020;BME280;22932;52.442;16.896;2022-08-19T09:03:53;99804.02;;;29.77;46.07
37020;BME280;22932;52.442;16.896;2022-08-19T09:06:31;99800.23;;;29.86;45.99
37020;BME280;22932;52.442;16.896;2022-08-19T09:09:05;99791.88;;;29.94;45.76
37020;BME280;22932;52.442;16.896;2022-08-19T09:11:52;99793.25;;;30.02;45.52
37020;BME280;22932;52.442;16.896;2022-08-19T09:14:34;99791.48;;;30.07;45.33
37020;BME280;22932;52.442;16.896;2022-08-19T09:17:04;99786.67;;;30.18;45.54
37020;BME280;22932;52.442;16.896;2022-08-19T09:19:46;99783.11;;;30.34;45.45
37020;BME280;22932;52.442;16.896;2022-08-19T09:22:15;99786.85;;;30.52;45.15
37020;BME280;22932;52.442;16.896;2022-08-19T09:24:44;99788.70;;;30.70;44.84
37020;BME280;22932;52.442;16.896;2022-08-19T09:27:14;99787.14;;;30.84;44.41
37020;BME280;22932;52.442;16.896;2022-08-19T09:29:43;99795.31;;;30.95;43.89
37020;BME280;22932;52.442;16.896;2022-08-19T09:32:12;99790.65;;;30.98;43.57
37020;BME280;22932;52.442;16.896;2022-08-19T09:34:42;99794.35;;;31.03;43.27
37020;BME280;22932;52.442;16.896;2022-08-19T09:37:11;99792.55;;;31.06;43.02
37020;BME280;22932;52.442;16.896;2022-08-19T09:39:44;99794.73;;;31.12;43.07
37020;BME280;22932;52.442;16.896;2022-08-19T09:42:13;99787.79;;;31.21;42.75
37020;BME280;22932;52.442;16.896;2022-08-19T09:44:43;99789.42;;;31.35;42.72
37020;BME280;22932;52.442;16.896;2022-08-19T09:47:13;99788.16;;;31.45;42.15
37020;BME280;22932;52.442;16.896;2022-08-19T09:49:43;99782.75;;;31.56;42.07
37020;BME280;22932;52.442;16.896;2022-08-19T09:52:13;99774.70;;;31.68;42.35
37020;BME280;22932;52.442;16.896;2022-08-19T09:54:43;99770.66;;;31.85;42.15
37020;BME280;22932;52.442;16.896;2022-08-19T09:57:13;99777.06;;;32.05;41.41
37020;BME280;22932;52.442;16.896;2022-08-19T09:59:42;99776.98;;;32.10;40.55
37020;BME280;22932;52.442;16.896;2022-08-19T10:02:13;99782.68;;;32.10;40.36
37020;BME280;22932;52.442;16.896;2022-08-19T10:04:42;99779.97;;;32.14;40.16
37020;BME280;22932;52.442;16.896;2022-08-19T10:07:30;99780.77;;;32.16;39.94
37020;BME280;22932;52.442;16.896;2022-08-19T10:09:59;99783.24;;;32.24;39.90
37020;BME280;22932;52.442;16.896;2022-08-19T10:12:28;99779.89;;;32.28;39.64
37020;BME280;22932;52.442;16.896;2022-08-19T10:14:58;99773.92;;;32.35;39.87
37020;BME280;22932;52.442;16.896;2022-08-19T10:17:28;99772.67;;;32.46;39.78
37020;BME280;22932;52.442;16.896;2022-08-19T10:20:01;99774.05;;;32.56;39.21
37020;BME280;22932;52.442;16.896;2022-08-19T10:22:32;99766.54;;;32.61;38.89
37020;BME280;22932;52.442;16.896;2022-08-19T10:25:05;99759.68;;;32.68;38.63
37020;BME280;22932;52.442;16.896;2022-08-19T10:27:42;99757.24;;;32.73;37.94
37020;BME280;22932;52.442;16.896;2022-08-19T10:30:14;99743.56;;;32.76;37.60
37020;BME280;22932;52.442;16.896;2022-08-19T10:44:59;99724.52;;;33.96;37.46
37020;BME280;22932;52.442;16.896;2022-08-19T10:47:29;99731.98;;;34.27;36.79
37020;BME280;22932;52.442;16.896;2022-08-19T10:49:58;99735.59;;;34.47;35.96
37020;BME280;22932;52.442;16.896;2022-08-19T10:52:48;99740.30;;;34.58;35.49
37020;BME280;22932;52.442;16.896;2022-08-19T10:55:21;99739.62;;;34.65;35.04
37020;BME280;22932;52.442;16.896;2022-08-19T10:58:13;99740.30;;;34.70;34.44
37020;BME280;22932;52.442;16.896;2022-08-19T11:00:46;99746.19;;;34.63;34.29
37020;BME280;22932;52.442;16.896;2022-08-19T11:03:19;99742.06;;;34.67;34.57
37020;BME280;22932;52.442;16.896;2022-08-19T11:05:58;99742.98;;;34.79;34.61
37020;BME280;22932;52.442;16.896;2022-08-19T11:08:28;99738.61;;;34.91;34.23
37020;BME280;22932;52.442;16.896;2022-08-19T11:11:02;99734.52;;;34.97;34.08
37020;BME280;22932;52.442;16.896;2022-08-19T11:13:33;99741.89;;;35.01;34.05
37020;BME280;22932;52.442;16.896;2022-08-19T11:16:07;99739.26;;;34.97;33.80
37020;BME280;22932;52.442;16.896;2022-08-19T11:18:40;99743.92;;;34.89;33.94
37020;BME280;22932;52.442;16.896;2022-08-19T11:21:14;99739.81;;;34.83;34.10
37020;BME280;22932;52.442;16.896;2022-08-19T11:23:45;99743.16;;;34.85;34.49
37020;BME280;22932;52.442;16.896;2022-08-19T11:26:15;99736.21;;;34.95;34.33
37020;BME280;22932;52.442;16.896;2022-08-19T11:28:43;99737.95;;;34.99;34.27
37020;BME280;22932;52.442;16.896;2022-08-19T11:31:15;99742.30;;;35.03;33.88
37020;BME280;22932;52.442;16.896;2022-08-19T11:33:45;99735.64;;;35.05;33.98
37020;BME280;22932;52.442;16.896;2022-08-19T11:36:14;99746.05;;;35.09;33.91
37020;BME280;22932;52.442;16.896;2022-08-19T11:38:45;99744.05;;;35.08;33.79
37020;BME280;22932;52.442;16.896;2022-08-19T11:41:17;99749.98;;;35.01;33.41
37020;BME280;22932;52.442;16.896;2022-08-19T11:43:47;99751.21;;;34.94;33.59
37020;BME280;22932;52.442;16.896;2022-08-19T11:46:17;99757.82;;;34.93;33.35
37020;BME280;22932;52.442;16.896;2022-08-19T11:48:47;99764.42;;;34.86;33.40
37020;BME280;22932;52.442;16.896;2022-08-19T11:51:20;99763.56;;;34.89;33.51
37020;BME280;22932;52.442;16.896;2022-08-19T11:53:53;99766.08;;;34.99;33.17
37020;BME280;22932;52.442;16.896;2022-08-19T11:56:25;99758.68;;;34.96;32.90
37020;BME280;22932;52.442;16.896;2022-08-19T11:58:56;99762.72;;;34.96;33.13
37020;BME280;22932;52.442;16.896;2022-08-19T12:01:27;99761.55;;;35.03;33.14
37020;BME280;22932;52.442;16.896;2022-08-19T12:03:58;99770.81;;;35.10;32.84
37020;BME280;22932;52.442;16.896;2022-08-19T12:06:30;99771.19;;;35.08;32.59
37020;BME280;22932;52.442;16.896;2022-08-19T12:09:04;99769.36;;;35.05;32.53
37020;BME280;22932;52.442;16.896;2022-08-19T12:11:35;99776.47;;;35.05;32.52
37020;BME280;22932;52.442;16.896;2022-08-19T12:14:06;99780.02;;;35.03;32.23
37020;BME280;22932;52.442;16.896;2022-08-19T12:16:35;99770.66;;;35.02;32.18
37020;BME280;22932;52.442;16.896;2022-08-19T12:19:05;99768.63;;;34.96;32.12
37020;BME280;22932;52.442;16.896;2022-08-19T12:21:33;99769.21;;;34.90;32.25
37020;BME280;22932;52.442;16.896;2022-08-19T12:24:04;99771.84;;;34.90;32.40
37020;BME280;22932;52.442;16.896;2022-08-19T12:26:34;99774.46;;;34.91;32.51
37020;BME280;22932;52.442;16.896;2022-08-19T12:29:02;99785.27;;;34.87;32.07
37020;BME280;22932;52.442;16.896;2022-08-19T12:31:32;99780.55;;;34.80;32.03
37020;BME280;22932;52.442;16.896;2022-08-19T12:34:02;99779.63;;;34.74;32.32
37020;BME280;22932;52.442;16.896;2022-08-19T12:36:31;99779.92;;;34.73;32.69
37020;BME280;22932;52.442;16.896;2022-08-19T12:39:00;99779.99;;;34.80;32.88
37020;BME280;22932;52.442;16.896;2022-08-19T12:41:30;99782.38;;;34.89;32.68
37020;BME280;22932;52.442;16.896;2022-08-19T12:44:00;99795.69;;;34.86;32.51
37020;BME280;22932;52.442;16.896;2022-08-19T12:46:29;99792.45;;;34.74;32.74
37020;BME280;22932;52.442;16.896;2022-08-19T12:48:59;99785.54;;;34.61;33.09
37020;BME280;22932;52.442;16.896;2022-08-19T12:51:28;99785.27;;;34.46;33.57
37020;BME280;22932;52.442;16.896;2022-08-19T12:53:59;99782.40;;;34.26;34.02
37020;BME280;22932;52.442;16.896;2022-08-19T12:56:29;99785.68;;;34.12;34.65
37020;BME280;22932;52.442;16.896;2022-08-19T12:58:57;99787.32;;;34.12;34.85
37020;BME280;22932;52.442;16.896;2022-08-19T13:01:28;99791.80;;;34.06;34.90
37020;BME280;22932;52.442;16.896;2022-08-19T13:03:58;99797.73;;;33.97;34.96
37020;BME280;22932;52.442;16.896;2022-08-19T13:06:27;99793.20;;;33.88;35.12
37020;BME280;22932;52.442;16.896;2022-08-19T13:08:57;99794.61;;;33.79;35.10
37020;BME280;22932;52.442;16.896;2022-08-19T13:11:26;99796.10;;;33.78;35.35
37020;BME280;22932;52.442;16.896;2022-08-19T13:14:02;99793.81;;;33.77;35.53
37020;BME280;22932;52.442;16.896;2022-08-19T13:16:32;99799.44;;;33.78;35.59
37020;BME280;22932;52.442;16.896;2022-08-19T13:19:01;99793.48;;;33.79;35.71
37020;BME280;22932;52.442;16.896;2022-08-19T13:21:33;99796.16;;;33.85;35.76
37020;BME280;22932;52.442;16.896;2022-08-19T13:24:02;99799.79;;;33.92;35.42
37020;BME280;22932;52.442;16.896;2022-08-19T13:26:32;99799.40;;;33.89;35.35
37020;BME280;22932;52.442;16.896;2022-08-19T13:29:01;99799.39;;;33.78;35.34
37020;BME280;22932;52.442;16.896;2022-08-19T13:31:48;99795.57;;;33.67;35.54
37020;BME280;22932;52.442;16.896;2022-08-19T13:34:35;99795.77;;;33.65;35.44
37020;BME280;22932;52.442;16.896;2022-08-19T13:37:03;99801.70;;;33.62;35.52
37020;BME280;22932;52.442;16.896;2022-08-19T13:39:36;99800.85;;;33.57;35.54
37020;BME280;22932;52.442;16.896;2022-08-19T13:42:22;99797.98;;;33.46;35.60
37020;BME280;22932;52.442;16.896;2022-08-19T13:44:54;99801.77;;;33.44;35.72
37020;BME280;22932;52.442;16.896;2022-08-19T13:47:23;99802.90;;;33.47;35.86
37020;BME280;22932;52.442;16.896;2022-08-19T13:49:53;99805.67;;;33.49;35.78
37020;BME280;22932;52.442;16.896;2022-08-19T13:52:22;99798.29;;;33.48;35.81
37020;BME280;22932;52.442;16.896;2022-08-19T13:54:52;99797.40;;;33.47;35.84
37020;BME280;22932;52.442;16.896;2022-08-19T13:57:39;99800.64;;;33.53;35.79
37020;BME280;22932;52.442;16.896;2022-08-19T14:00:12;99801.98;;;33.59;35.78
37020;BME280;22932;52.442;16.896;2022-08-19T14:02:43;99799.27;;;33.61;35.77
37020;BME280;22932;52.442;16.896;2022-08-19T14:05:12;99799.75;;;33.68;35.86
37020;BME280;22932;52.442;16.896;2022-08-19T14:07:41;99798.35;;;33.73;35.75
37020;BME280;22932;52.442;16.896;2022-08-19T14:10:12;99803.25;;;33.72;35.50
37020;BME280;22932;52.442;16.896;2022-08-19T14:12:42;99797.45;;;33.68;35.47
37020;BME280;22932;52.442;16.896;2022-08-19T14:15:12;99804.45;;;33.68;35.56
37020;BME280;22932;52.442;16.896;2022-08-19T14:17:44;99810.90;;;33.68;35.65
37020;BME280;22932;52.442;16.896;2022-08-19T14:20:14;99807.21;;;33.73;35.72
37020;BME280;22932;52.442;16.896;2022-08-19T14:22:45;99810.79;;;33.80;35.72
37020;BME280;22932;52.442;16.896;2022-08-19T14:25:16;99809.60;;;33.83;35.53
37020;BME280;22932;52.442;16.896;2022-08-19T14:27:47;99812.73;;;33.83;35.49
37020;BME280;22932;52.442;16.896;2022-08-19T14:30:15;99818.74;;;33.79;35.32
37020;BME280;22932;52.442;16.896;2022-08-19T14:32:45;99815.20;;;33.66;35.38
37020;BME280;22932;52.442;16.896;2022-08-19T14:35:15;99815.06;;;33.51;35.63
37020;BME280;22932;52.442;16.896;2022-08-19T14:37:49;99818.84;;;33.38;35.82
37020;BME280;22932;52.442;16.896;2022-08-19T14:40:20;99818.03;;;33.33;36.15
37020;BME280;22932;52.442;16.896;2022-08-19T14:42:53;99818.69;;;33.24;36.08
37020;BME280;22932;52.442;16.896;2022-08-19T14:45:34;99822.33;;;33.07;36.20
37020;BME280;22932;52.442;16.896;2022-08-19T14:48:04;99823.55;;;32.87;36.52
37020;BME280;22932;52.442;16.896;2022-08-19T14:50:34;99824.24;;;32.74;36.78
37020;BME280;22932;52.442;16.896;2022-08-19T14:53:06;99819.77;;;32.62;37.01
37020;BME280;22932;52.442;16.896;2022-08-19T14:55:36;99824.52;;;32.50;37.17
37020;BME280;22932;52.442;16.896;2022-08-19T14:58:05;99821.73;;;32.44;37.35
37020;BME280;22932;52.442;16.896;2022-08-19T15:00:35;99818.38;;;32.38;37.39
37020;BME280;22932;52.442;16.896;2022-08-19T15:03:04;99819.60;;;32.29;37.61
37020;BME280;22932;52.442;16.896;2022-08-19T15:05:33;99817.83;;;32.20;37.60
37020;BME280;22932;52.442;16.896;2022-08-19T15:08:05;99815.92;;;32.16;37.83
37020;BME280;22932;52.442;16.896;2022-08-19T15:10:35;99818.66;;;32.10;37.92
37020;BME280;22932;52.442;16.896;2022-08-19T15:13:04;99822.50;;;32.02;38.00
37020;BME280;22932;52.442;16.896;2022-08-19T15:15:33;99821.60;;;31.91;38.04
37020;BME280;22932;52.442;16.896;2022-08-19T15:18:03;99817.52;;;31.80;38.27
37020;BME280;22932;52.442;16.896;2022-08-19T15:20:33;99816.25;;;31.68;38.39
37020;BME280;22932;52.442;16.896;2022-08-19T15:23:02;99815.52;;;31.58;38.59
37020;BME280;22932;52.442;16.896;2022-08-19T15:25:31;99815.05;;;31.48;38.65
37020;BME280;22932;52.442;16.896;2022-08-19T15:28:02;99814.30;;;31.35;38.84
37020;BME280;22932;52.442;16.896;2022-08-19T15:30:31;99814.30;;;31.28;38.96
37020;BME280;22932;52.442;16.896;2022-08-19T15:33:02;99806.92;;;31.22;39.24
37020;BME280;22932;52.442;16.896;2022-08-19T15:35:32;99806.13;;;31.17;39.12
37020;BME280;22932;52.442;16.896;2022-08-19T15:38:00;99806.74;;;31.10;39.09
37020;BME280;22932;52.442;16.896;2022-08-19T15:40:29;99805.37;;;31.00;39.38
37020;BME280;22932;52.442;16.896;2022-08-19T15:42:59;99800.48;;;30.95;39.40
37020;BME280;22932;52.442;16.896;2022-08-19T15:45:28;99802.03;;;30.90;39.51
37020;BME280;22932;52.442;16.896;2022-08-19T15:48:01;99801.10;;;30.87;39.71
37020;BME280;22932;52.442;16.896;2022-08-19T15:50:31;99802.33;;;30.81;39.80
37020;BME280;22932;52.442;16.896;2022-08-19T15:53:04;99800.95;;;30.78;39.93
37020;BME280;22932;52.442;16.896;2022-08-19T15:55:36;99800.20;;;30.76;40.14
37020;BME280;22932;52.442;16.896;2022-08-19T15:58:07;99797.80;;;30.77;40.26
37020;BME280;22932;52.442;16.896;2022-08-19T16:00:54;99798.05;;;30.74;40.16
37020;BME280;22932;52.442;16.896;2022-08-19T16:03:41;99802.73;;;30.66;40.27
37020;BME280;22932;52.442;16.896;2022-08-19T16:06:29;99803.48;;;30.60;40.33
37020;BME280;22932;52.442;16.896;2022-08-19T16:09:01;99801.50;;;30.54;40.49
37020;BME280;22932;52.442;16.896;2022-08-19T16:11:32;99802.68;;;30.52;40.59
37020;BME280;22932;52.442;16.896;2022-08-19T16:14:02;99803.42;;;30.51;40.66
37020;BME280;22932;52.442;16.896;2022-08-19T16:16:35;99798.20;;;30.47;40.83
37020;BME280;22932;52.442;16.896;2022-08-19T16:19:07;99802.56;;;30.45;40.85
37020;BME280;22932;52.442;16.896;2022-08-19T16:21:38;99804.54;;;30.40;40.90
37020;BME280;22932;52.442;16.896;2022-08-19T16:24:10;99807.73;;;30.37;40.87
37020;BME280;22932;52.442;16.896;2022-08-19T16:26:40;99807.52;;;30.34;41.08
37020;BME280;22932;52.442;16.896;2022-08-19T16:29:10;99803.81;;;30.28;41.15
37020;BME280;22932;52.442;16.896;2022-08-19T16:31:38;99804.91;;;30.31;41.24
37020;BME280;22932;52.442;16.896;2022-08-19T16:34:08;99807.57;;;30.36;41.31
37020;BME280;22932;52.442;16.896;2022-08-19T16:36:38;99810.89;;;30.38;41.42
37020;BME280;22932;52.442;16.896;2022-08-19T16:39:08;99810.44;;;30.42;41.38
37020;BME280;22932;52.442;16.896;2022-08-19T16:41:39;99819.00;;;30.44;41.36
37020;BME280;22932;52.442;16.896;2022-08-19T16:44:10;99821.77;;;30.47;41.40